Time;durP1;ratioP1;P1;durP2;ratioP2;P2;SDS_P1;SDS_P2;PMS_P1;PMS_P2;Temp;Humidity;BMP_temperature;BMP_pressure;BME280_temperature;BME280_humidity;BME280_pressure;Samples;Min_cycle;Max_cycle;Signal;HPM_P1;HPM_P2
2021/01/19 00:00:48;;;;;;;1.50;1.40;;;;;;;17.92;44.45;101088.36;;;;-54
2021/01/19 00:03:47;;;;;;;1.66;1.51;;;;;;;17.90;44.46;101083.45;;;;-54
2021/01/19 00:06:48;;;;;;;1.73;1.63;;;;;;;17.88;44.56;101076.84;;;;-53
2021/01/19 00:09:47;;;;;;;1.91;1.67;;;;;;;17.86;44.50;101072.82;;;;-52
2021/01/19 00:12:47;;;;;;;1.70;1.60;;;;;;;17.85;44.52;101079.62;;;;-54
2021/01/19 00:15:48;;;;;;;1.79;1.61;;;;;;;17.83;44.52;101078.28;;;;-54
2021/01/19 00:18:47;;;;;;;1.69;1.59;;;;;;;17.81;44.60;101079.82;;;;-54
2021/01/19 00:21:47;;;;;;;2.03;1.60;;;;;;;17.79;44.53;101075.56;;;;-53
2021/01/19 00:24:47;;;;;;;1.71;1.61;;;;;;;17.78;44.58;101073.33;;;;-54
2021/01/19 00:27:47;;;;;;;1.63;1.50;;;;;;;17.75;44.60;101073.77;;;;-53
2021/01/19 00:30:47;;;;;;;1.90;1.58;;;;;;;17.75;44.57;101072.30;;;;-54
2021/01/19 00:33:48;;;;;;;2.63;1.58;;;;;;;17.73;44.59;101067.80;;;;-53
2021/01/19 00:36:47;;;;;;;1.73;1.50;;;;;;;17.71;44.59;101066.45;;;;-54
2021/01/19 00:39:47;;;;;;;1.60;1.50;;;;;;;17.70;44.60;101067.22;;;;-54
2021/01/19 00:42:47;;;;;;;2.35;1.55;;;;;;;17.67;44.58;101069.84;;;;-53
2021/01/19 00:45:47;;;;;;;1.73;1.59;;;;;;;17.66;44.65;101064.41;;;;-53
2021/01/19 00:48:47;;;;;;;1.69;1.59;;;;;;;17.63;44.55;101064.97;;;;-53
2021/01/19 00:51:48;;;;;;;1.67;1.57;;;;;;;17.63;44.58;101060.83;;;;-53
2021/01/19 00:54:47;;;;;;;1.90;1.51;;;;;;;17.61;44.62;101061.34;;;;-53
2021/01/19 00:57:47;;;;;;;1.87;1.69;;;;;;;17.59;44.65;101055.95;;;;-54
2021/01/19 01:00:48;;;;;;;1.59;1.49;;;;;;;17.58;44.61;101053.52;;;;-53
2021/01/19 01:03:47;;;;;;;1.79;1.59;;;;;;;17.57;44.62;101042.77;;;;-53
2021/01/19 01:06:47;;;;;;;1.63;1.53;;;;;;;17.55;44.64;101045.64;;;;-54
2021/01/19 01:09:47;;;;;;;1.73;1.58;;;;;;;17.54;44.66;101044.75;;;;-53
2021/01/19 01:12:47;;;;;;;1.61;1.50;;;;;;;17.52;44.59;101039.59;;;;-53
2021/01/19 01:15:47;;;;;;;1.59;1.49;;;;;;;17.51;44.65;101043.11;;;;-54
2021/01/19 01:18:49;;;;;;;1.73;1.58;;;;;;;17.48;44.70;101040.39;;;;-54
2021/01/19 01:21:47;;;;;;;1.82;1.71;;;;;;;17.48;44.59;101042.98;;;;-53
2021/01/19 01:24:47;;;;;;;1.60;1.50;;;;;;;17.46;44.64;101035.64;;;;-53
2021/01/19 01:27:47;;;;;;;1.69;1.59;;;;;;;17.44;44.69;101025.95;;;;-53
2021/01/19 01:30:47;;;;;;;2.17;1.70;;;;;;;17.43;44.73;101015.86;;;;-53
2021/01/19 01:33:47;;;;;;;1.60;1.50;;;;;;;17.41;44.63;101013.09;;;;-53
2021/01/19 01:36:47;;;;;;;1.56;1.46;;;;;;;17.40;44.72;101001.14;;;;-53
2021/01/19 01:39:47;;;;;;;2.49;1.48;;;;;;;17.38;44.74;100995.75;;;;-53
2021/01/19 01:42:48;;;;;;;1.60;1.50;;;;;;;17.37;44.69;100992.87;;;;-53
2021/01/19 01:45:47;;;;;;;1.65;1.55;;;;;;;17.35;44.76;100998.00;;;;-54
2021/01/19 01:48:47;;;;;;;1.57;1.47;;;;;;;17.33;44.71;100994.18;;;;-53
2021/01/19 01:51:47;;;;;;;1.73;1.63;;;;;;;17.32;44.72;100987.18;;;;-53
2021/01/19 01:54:47;;;;;;;1.56;1.46;;;;;;;17.31;44.71;100977.77;;;;-53
2021/01/19 01:57:47;;;;;;;1.62;1.52;;;;;;;17.30;44.67;100968.41;;;;-53
2021/01/19 02:00:48;;;;;;;1.60;1.50;;;;;;;17.29;44.73;100951.87;;;;-53
2021/01/19 02:03:47;;;;;;;1.55;1.45;;;;;;;17.27;44.74;100952.88;;;;-53
2021/01/19 02:06:47;;;;;;;2.07;1.49;;;;;;;17.26;44.70;100954.22;;;;-53
2021/01/19 02:09:47;;;;;;;1.66;1.55;;;;;;;17.25;44.67;100950.73;;;;-53
2021/01/19 02:12:47;;;;;;;1.45;1.35;;;;;;;17.25;44.65;100951.38;;;;-54
2021/01/19 02:15:48;;;;;;;1.52;1.42;;;;;;;17.23;44.70;100943.06;;;;-53
2021/01/19 02:18:47;;;;;;;1.59;1.47;;;;;;;17.22;44.72;100938.41;;;;-53
2021/01/19 02:21:47;;;;;;;1.59;1.49;;;;;;;17.21;44.71;100934.11;;;;-54
2021/01/19 02:24:47;;;;;;;1.77;1.63;;;;;;;17.19;44.75;100925.08;;;;-55
2021/01/19 02:27:47;;;;;;;1.65;1.41;;;;;;;17.19;44.71;100927.67;;;;-55
2021/01/19 02:30:47;;;;;;;1.65;1.49;;;;;;;17.17;44.75;100923.01;;;;-55
2021/01/19 02:33:47;;;;;;;1.50;1.40;;;;;;;17.17;44.74;100919.52;;;;-55
2021/01/19 02:36:47;;;;;;;1.51;1.41;;;;;;;17.15;44.73;100919.07;;;;-55
2021/01/19 02:39:47;;;;;;;3.89;1.46;;;;;;;17.14;44.69;100913.39;;;;-55
2021/01/19 02:42:47;;;;;;;1.65;1.50;;;;;;;17.14;44.71;100911.73;;;;-55
2021/01/19 02:45:47;;;;;;;1.69;1.46;;;;;;;17.13;44.78;100906.88;;;;-54
2021/01/19 02:48:47;;;;;;;1.63;1.53;;;;;;;17.12;44.73;100902.46;;;;-55
2021/01/19 02:51:47;;;;;;;1.51;1.41;;;;;;;17.10;44.77;100895.64;;;;-54
2021/01/19 02:54:47;;;;;;;1.50;1.40;;;;;;;17.10;44.78;100900.63;;;;-54
2021/01/19 02:57:47;;;;;;;1.64;1.46;;;;;;;17.09;44.72;100899.57;;;;-55
2021/01/19 03:00:47;;;;;;;1.41;1.31;;;;;;;17.07;44.75;100885.77;;;;-54
2021/01/19 03:03:47;;;;;;;1.59;1.40;;;;;;;17.06;44.67;100885.43;;;;-54
2021/01/19 03:06:48;;;;;;;1.49;1.39;;;;;;;17.05;44.76;100890.00;;;;-54
2021/01/19 03:09:48;;;;;;;1.50;1.40;;;;;;;17.05;44.83;100883.12;;;;-54
2021/01/19 03:12:47;;;;;;;1.56;1.46;;;;;;;17.04;44.78;100882.70;;;;-54
2021/01/19 03:15:47;;;;;;;1.57;1.47;;;;;;;17.03;44.76;100878.46;;;;-54
2021/01/19 03:18:47;;;;;;;1.55;1.45;;;;;;;17.01;44.77;100872.67;;;;-54
2021/01/19 03:21:47;;;;;;;1.49;1.39;;;;;;;17.01;44.73;100867.64;;;;-54
2021/01/19 03:24:47;;;;;;;1.51;1.41;;;;;;;16.99;44.73;100868.00;;;;-54
2021/01/19 03:27:47;;;;;;;2.03;1.65;;;;;;;16.99;44.75;100874.47;;;;-54
2021/01/19 03:30:47;;;;;;;1.54;1.44;;;;;;;16.98;44.72;100868.64;;;;-54
2021/01/19 03:33:47;;;;;;;1.50;1.40;;;;;;;16.96;44.79;100871.03;;;;-54
2021/01/19 03:36:47;;;;;;;1.50;1.40;;;;;;;16.96;44.73;100875.39;;;;-55
2021/01/19 03:39:47;;;;;;;1.43;1.33;;;;;;;16.96;44.81;100868.67;;;;-53
2021/01/19 03:42:47;;;;;;;1.58;1.48;;;;;;;16.94;44.77;100869.84;;;;-54
2021/01/19 03:45:47;;;;;;;1.50;1.40;;;;;;;16.92;44.73;100861.38;;;;-54
2021/01/19 03:48:47;;;;;;;1.60;1.50;;;;;;;16.92;44.74;100861.22;;;;-55
2021/01/19 03:51:47;;;;;;;1.50;1.40;;;;;;;16.91;44.78;100857.97;;;;-54
2021/01/19 03:54:47;;;;;;;1.47;1.37;;;;;;;16.90;44.78;100853.15;;;;-54
2021/01/19 03:57:47;;;;;;;1.49;1.39;;;;;;;16.90;44.76;100859.14;;;;-54
2021/01/19 04:00:47;;;;;;;1.87;1.32;;;;;;;16.89;44.79;100857.64;;;;-54
2021/01/19 04:03:47;;;;;;;1.42;1.32;;;;;;;16.88;44.80;100857.15;;;;-54
2021/01/19 04:06:47;;;;;;;1.49;1.39;;;;;;;16.87;44.74;100842.49;;;;-54
2021/01/19 04:09:47;;;;;;;1.63;1.53;;;;;;;16.87;44.74;100837.60;;;;-54
2021/01/19 04:12:47;;;;;;;1.54;1.40;;;;;;;16.85;44.75;100836.22;;;;-53
2021/01/19 04:15:48;;;;;;;1.53;1.43;;;;;;;16.84;44.77;100835.12;;;;-54
2021/01/19 04:18:47;;;;;;;1.40;1.30;;;;;;;16.84;44.77;100834.88;;;;-54
2021/01/19 04:21:47;;;;;;;1.60;1.50;;;;;;;16.83;44.74;100832.65;;;;-54
2021/01/19 04:24:47;;;;;;;1.68;1.42;;;;;;;16.82;44.79;100824.63;;;;-54
2021/01/19 04:27:47;;;;;;;1.60;1.50;;;;;;;16.82;44.71;100826.41;;;;-54
2021/01/19 04:30:48;;;;;;;1.57;1.47;;;;;;;16.81;44.75;100821.47;;;;-54
2021/01/19 04:33:47;;;;;;;1.50;1.40;;;;;;;16.80;44.70;100810.87;;;;-55
2021/01/19 04:36:47;;;;;;;1.50;1.40;;;;;;;16.80;44.69;100807.80;;;;-55
2021/01/19 04:39:47;;;;;;;1.51;1.41;;;;;;;16.78;44.71;100808.89;;;;-53
2021/01/19 04:42:47;;;;;;;1.51;1.40;;;;;;;16.77;44.79;100802.08;;;;-54
2021/01/19 04:45:47;;;;;;;1.40;1.30;;;;;;;16.77;44.76;100798.20;;;;-54
2021/01/19 04:48:47;;;;;;;1.50;1.40;;;;;;;16.75;44.73;100790.55;;;;-55
2021/01/19 04:51:47;;;;;;;1.41;1.31;;;;;;;16.75;44.73;100787.88;;;;-54
2021/01/19 04:54:47;;;;;;;1.37;1.27;;;;;;;16.74;44.72;100785.08;;;;-54
2021/01/19 04:57:47;;;;;;;1.42;1.31;;;;;;;16.73;44.75;100783.53;;;;-55
2021/01/19 05:00:47;;;;;;;2.12;1.30;;;;;;;16.73;44.75;100774.31;;;;-53
2021/01/19 05:03:47;;;;;;;1.67;1.47;;;;;;;16.72;44.69;100760.59;;;;-53
2021/01/19 05:06:47;;;;;;;1.46;1.36;;;;;;;16.71;44.69;100752.57;;;;-55
2021/01/19 05:09:47;;;;;;;1.42;1.32;;;;;;;16.71;44.74;100764.63;;;;-54
2021/01/19 05:12:47;;;;;;;1.51;1.41;;;;;;;16.69;44.79;100766.69;;;;-54
2021/01/19 05:15:47;;;;;;;1.50;1.40;;;;;;;16.69;44.71;100764.83;;;;-54
2021/01/19 05:18:47;;;;;;;1.66;1.47;;;;;;;16.67;44.71;100751.43;;;;-55
2021/01/19 05:21:47;;;;;;;1.50;1.40;;;;;;;16.66;44.74;100750.94;;;;-54
2021/01/19 05:24:47;;;;;;;1.43;1.30;;;;;;;16.66;44.78;100752.36;;;;-53
2021/01/19 05:27:47;;;;;;;1.44;1.34;;;;;;;16.66;44.74;100743.54;;;;-55
2021/01/19 05:30:47;;;;;;;1.41;1.31;;;;;;;16.64;44.71;100736.17;;;;-54
2021/01/19 05:33:47;;;;;;;1.64;1.41;;;;;;;16.64;44.65;100732.00;;;;-54
2021/01/19 05:36:47;;;;;;;1.53;1.43;;;;;;;16.63;44.70;100729.57;;;;-54
2021/01/19 05:39:47;;;;;;;1.49;1.39;;;;;;;16.62;44.68;100723.17;;;;-54
2021/01/19 05:42:47;;;;;;;1.40;1.30;;;;;;;16.61;44.69;100721.84;;;;-54
2021/01/19 05:45:47;;;;;;;1.50;1.40;;;;;;;16.61;44.71;100717.06;;;;-54
2021/01/19 05:48:47;;;;;;;1.41;1.31;;;;;;;16.60;44.74;100709.86;;;;-54
2021/01/19 05:51:47;;;;;;;1.55;1.40;;;;;;;16.60;44.70;100706.11;;;;-54
2021/01/19 05:54:47;;;;;;;1.40;1.30;;;;;;;16.59;44.69;100702.70;;;;-54
2021/01/19 05:57:47;;;;;;;1.49;1.39;;;;;;;16.58;44.75;100700.59;;;;-54
2021/01/19 06:00:47;;;;;;;1.56;1.46;;;;;;;16.57;44.60;100696.75;;;;-54
2021/01/19 06:03:47;;;;;;;1.45;1.35;;;;;;;16.57;44.68;100696.11;;;;-54
2021/01/19 06:06:47;;;;;;;1.41;1.31;;;;;;;16.56;44.69;100693.02;;;;-54
2021/01/19 06:09:47;;;;;;;1.50;1.40;;;;;;;16.55;44.65;100692.73;;;;-54
2021/01/19 06:12:47;;;;;;;1.47;1.37;;;;;;;16.55;44.67;100687.97;;;;-54
2021/01/19 06:15:47;;;;;;;1.43;1.33;;;;;;;16.55;44.69;100689.42;;;;-54
2021/01/19 06:18:47;;;;;;;1.54;1.30;;;;;;;16.55;44.61;100680.36;;;;-54
2021/01/19 06:21:47;;;;;;;1.50;1.40;;;;;;;16.55;44.69;100672.92;;;;-54
2021/01/19 06:24:47;;;;;;;1.43;1.33;;;;;;;16.57;44.75;100676.93;;;;-54
2021/01/19 06:27:47;;;;;;;1.54;1.32;;;;;;;16.60;44.78;100678.02;;;;-53
2021/01/19 06:30:47;;;;;;;1.35;1.25;;;;;;;16.61;44.72;100671.19;;;;-54
2021/01/19 06:33:47;;;;;;;1.43;1.33;;;;;;;16.61;44.68;100672.65;;;;-54
2021/01/19 06:36:47;;;;;;;1.40;1.30;;;;;;;16.64;44.66;100669.81;;;;-55
2021/01/19 06:39:47;;;;;;;1.52;1.40;;;;;;;16.66;44.77;100667.80;;;;-54
2021/01/19 06:42:47;;;;;;;1.40;1.30;;;;;;;16.69;44.82;100667.56;;;;-54
2021/01/19 06:45:47;;;;;;;1.61;1.30;;;;;;;16.71;44.85;100658.46;;;;-54
2021/01/19 06:48:47;;;;;;;1.42;1.32;;;;;;;16.74;44.83;100643.38;;;;-54
2021/01/19 06:51:47;;;;;;;1.46;1.36;;;;;;;16.77;44.89;100641.34;;;;-54
2021/01/19 06:54:47;;;;;;;1.41;1.20;;;;;;;16.81;44.78;100635.72;;;;-54
2021/01/19 06:57:48;;;;;;;1.39;1.29;;;;;;;16.85;44.86;100625.97;;;;-55
2021/01/19 07:00:47;;;;;;;1.49;1.37;;;;;;;16.89;44.80;100622.52;;;;-54
2021/01/19 07:03:47;;;;;;;1.46;1.36;;;;;;;16.92;44.82;100618.12;;;;-54
2021/01/19 07:06:47;;;;;;;1.30;1.20;;;;;;;16.97;44.86;100609.45;;;;-55
2021/01/19 07:09:47;;;;;;;1.30;1.20;;;;;;;17.01;44.87;100614.39;;;;-54
2021/01/19 07:12:47;;;;;;;1.45;1.35;;;;;;;17.06;44.89;100615.88;;;;-54
2021/01/19 07:15:47;;;;;;;7.85;1.75;;;;;;;16.82;42.13;100610.71;;;;-51
2021/01/19 07:18:48;;;;;;;3.11;1.80;;;;;;;16.65;41.64;100606.14;;;;-53
2021/01/19 07:21:47;;;;;;;3.65;1.82;;;;;;;16.46;40.76;100598.96;;;;-52
2021/01/19 07:25:47;;;;;;;4.13;2.16;;;;;;;16.26;40.59;100598.12;;;;-51
2021/01/19 07:28:47;;;;;;;2.42;1.80;;;;;;;16.48;41.45;100594.96;;;;-51
2021/01/19 07:31:47;;;;;;;2.44;1.80;;;;;;;16.60;41.97;100582.80;;;;-51
2021/01/19 07:34:47;;;;;;;3.25;1.83;;;;;;;16.69;42.52;100586.16;;;;-51
2021/01/19 07:37:47;;;;;;;3.33;1.80;;;;;;;16.77;42.68;100581.78;;;;-52
2021/01/19 07:40:47;;;;;;;2.94;1.80;;;;;;;16.84;42.79;100574.58;;;;-51
2021/01/19 07:43:47;;;;;;;1.81;1.51;;;;;;;16.90;42.92;100575.74;;;;-51
2021/01/19 07:46:47;;;;;;;2.71;1.77;;;;;;;16.96;43.01;100572.86;;;;-51
2021/01/19 07:49:47;;;;;;;1.88;1.59;;;;;;;17.00;43.14;100562.58;;;;-51
2021/01/19 07:52:47;;;;;;;2.18;1.63;;;;;;;17.05;43.13;100560.80;;;;-51
2021/01/19 07:55:48;;;;;;;2.63;1.60;;;;;;;17.09;43.15;100559.00;;;;-51
2021/01/19 07:58:47;;;;;;;2.69;1.69;;;;;;;17.13;43.19;100556.81;;;;-51
2021/01/19 08:01:47;;;;;;;1.61;1.51;;;;;;;17.15;43.31;100551.58;;;;-51
2021/01/19 08:04:47;;;;;;;2.00;1.50;;;;;;;17.20;43.27;100551.33;;;;-51
2021/01/19 08:07:47;;;;;;;2.28;1.50;;;;;;;17.21;43.35;100544.32;;;;-51
2021/01/19 08:10:47;;;;;;;1.61;1.51;;;;;;;17.23;43.38;100544.67;;;;-50
2021/01/19 08:13:47;;;;;;;3.10;1.60;;;;;;;17.25;43.34;100544.39;;;;-50
2021/01/19 08:16:47;;;;;;;2.04;1.50;;;;;;;17.27;43.37;100533.81;;;;-51
2021/01/19 08:19:47;;;;;;;1.69;1.50;;;;;;;17.28;43.37;100530.17;;;;-50
2021/01/19 08:22:47;;;;;;;3.09;1.56;;;;;;;17.29;43.40;100521.86;;;;-51
2021/01/19 08:25:47;;;;;;;1.74;1.40;;;;;;;17.30;43.41;100523.16;;;;-52
2021/01/19 08:28:47;;;;;;;1.75;1.51;;;;;;;17.32;43.39;100519.38;;;;-51
2021/01/19 08:31:47;;;;;;;2.04;1.50;;;;;;;17.33;43.42;100520.47;;;;-51
2021/01/19 08:34:47;;;;;;;1.58;1.46;;;;;;;17.36;43.67;100526.98;;;;-50
2021/01/19 08:37:47;;;;;;;3.45;1.49;;;;;;;17.38;44.04;100525.64;;;;-49
2021/01/19 08:40:47;;;;;;;1.73;1.45;;;;;;;17.41;44.16;100518.37;;;;-50
2021/01/19 08:43:47;;;;;;;1.73;1.50;;;;;;;17.44;44.08;100507.42;;;;-51
2021/01/19 08:46:47;;;;;;;2.04;1.50;;;;;;;17.47;44.07;100509.92;;;;-56
2021/01/19 08:49:47;;;;;;;2.15;1.49;;;;;;;17.52;44.27;100507.15;;;;-49
2021/01/19 08:52:47;;;;;;;1.65;1.55;;;;;;;17.57;44.02;100512.16;;;;-47
2021/01/19 08:55:47;;;;;;;3.35;1.51;;;;;;;17.60;44.33;100501.20;;;;-51
2021/01/19 08:59:19;;;;;;;1.84;1.53;;;;;;;17.65;44.11;100494.53;;;;-45
2021/01/19 09:01:47;;;;;;;1.45;1.33;;;;;;;17.70;44.20;100491.45;;;;-48
2021/01/19 09:04:47;;;;;;;2.19;1.39;;;;;;;17.74;44.35;100487.55;;;;-50
2021/01/19 09:07:47;;;;;;;1.65;1.51;;;;;;;17.79;44.81;100487.52;;;;-52
2021/01/19 09:10:47;;;;;;;3.57;1.59;;;;;;;17.82;44.54;100484.87;;;;-52
2021/01/19 09:13:47;;;;;;;1.49;1.39;;;;;;;17.84;44.37;100480.06;;;;-52
2021/01/19 09:16:47;;;;;;;1.53;1.43;;;;;;;17.85;44.17;100486.17;;;;-52
2021/01/19 09:19:47;;;;;;;1.67;1.50;;;;;;;17.87;44.11;100480.61;;;;-52
2021/01/19 09:22:47;;;;;;;1.59;1.37;;;;;;;17.87;44.11;100480.36;;;;-52
2021/01/19 09:25:47;;;;;;;2.03;1.35;;;;;;;17.89;44.02;100478.05;;;;-52
2021/01/19 09:28:47;;;;;;;4.63;1.49;;;;;;;17.90;44.06;100466.12;;;;-53
2021/01/19 09:31:47;;;;;;;10.89;1.93;;;;;;;17.87;43.48;100457.34;;;;-51
2021/01/19 09:34:47;;;;;;;3.71;2.03;;;;;;;17.90;43.62;100460.05;;;;-52
2021/01/19 09:37:47;;;;;;;4.61;1.55;;;;;;;17.93;43.71;100455.23;;;;-53
2021/01/19 09:40:48;;;;;;;2.35;1.58;;;;;;;17.97;43.93;100454.13;;;;-55
2021/01/19 09:43:48;;;;;;;3.29;1.71;;;;;;;18.02;44.03;100448.44;;;;-56
2021/01/19 09:46:52;;;;;;;1.65;1.47;;;;;;;18.05;44.15;100441.57;;;;-54
2021/01/19 09:49:51;;;;;;;3.85;1.65;;;;;;;18.10;44.03;100442.95;;;;-56
2021/01/19 09:52:47;;;;;;;4.91;1.70;;;;;;;18.12;43.88;100442.41;;;;-56
2021/01/19 09:55:47;;;;;;;7.16;1.72;;;;;;;18.14;44.01;100432.77;;;;-51
2021/01/19 09:58:47;;;;;;;6.12;1.79;;;;;;;18.14;43.24;100431.31;;;;-53
2021/01/19 10:01:47;;;;;;;2.73;1.54;;;;;;;18.15;43.23;100426.69;;;;-54
2021/01/19 10:04:47;;;;;;;2.65;1.71;;;;;;;18.16;43.27;100417.95;;;;-53
2021/01/19 10:07:47;;;;;;;2.79;1.61;;;;;;;18.17;43.29;100416.90;;;;-53
2021/01/19 10:10:47;;;;;;;2.45;1.50;;;;;;;18.18;43.35;100411.81;;;;-53
2021/01/19 10:13:47;;;;;;;2.55;1.65;;;;;;;18.20;43.46;100409.41;;;;-53
2021/01/19 10:16:48;;;;;;;3.09;1.72;;;;;;;18.26;43.98;100405.88;;;;-53
2021/01/19 10:19:47;;;;;;;3.90;1.69;;;;;;;18.29;44.12;100394.80;;;;-54
2021/01/19 10:22:49;;;;;;;4.02;1.69;;;;;;;18.34;44.10;100396.17;;;;-51
2021/01/19 10:25:47;;;;;;;2.32;1.52;;;;;;;18.38;44.42;100390.66;;;;-51
2021/01/19 10:28:47;;;;;;;2.47;1.51;;;;;;;18.41;44.31;100382.44;;;;-51
2021/01/19 10:31:47;;;;;;;2.24;1.61;;;;;;;18.45;44.48;100373.84;;;;-49
2021/01/19 10:34:47;;;;;;;3.85;1.61;;;;;;;18.48;44.39;100378.34;;;;-47
2021/01/19 10:37:47;;;;;;;2.20;1.47;;;;;;;18.51;44.61;100373.60;;;;-52
2021/01/19 10:40:47;;;;;;;1.73;1.56;;;;;;;18.55;44.42;100370.05;;;;-54
2021/01/19 10:43:47;;;;;;;2.19;1.50;;;;;;;18.57;44.56;100367.41;;;;-50
2021/01/19 10:46:47;;;;;;;1.78;1.47;;;;;;;18.59;44.26;100371.05;;;;-47
2021/01/19 10:49:47;;;;;;;1.76;1.50;;;;;;;18.62;44.58;100362.25;;;;-53
2021/01/19 10:52:47;;;;;;;1.89;1.37;;;;;;;18.65;44.43;100353.81;;;;-53
2021/01/19 10:55:47;;;;;;;1.79;1.34;;;;;;;18.67;44.46;100341.66;;;;-54
2021/01/19 10:58:47;;;;;;;2.82;1.42;;;;;;;18.69;44.44;100336.16;;;;-56
2021/01/19 11:01:47;;;;;;;1.90;1.60;;;;;;;18.72;44.61;100330.59;;;;-48
2021/01/19 11:04:47;;;;;;;6.07;1.65;;;;;;;18.74;44.12;100322.38;;;;-48
2021/01/19 11:07:47;;;;;;;2.37;1.59;;;;;;;18.78;44.50;100312.94;;;;-49
2021/01/19 11:10:47;;;;;;;3.96;1.41;;;;;;;18.76;43.95;100310.06;;;;-49
2021/01/19 11:13:47;;;;;;;2.56;1.60;;;;;;;18.74;43.89;100306.66;;;;-49
2021/01/19 11:16:47;;;;;;;2.21;1.55;;;;;;;18.73;43.65;100311.27;;;;-49
2021/01/19 11:19:47;;;;;;;2.99;1.49;;;;;;;18.73;43.64;100302.34;;;;-49
2021/01/19 11:22:47;;;;;;;3.17;1.45;;;;;;;18.73;43.69;100306.64;;;;-48
2021/01/19 11:25:47;;;;;;;2.17;1.30;;;;;;;18.73;43.69;100304.86;;;;-48
2021/01/19 11:28:47;;;;;;;2.52;1.37;;;;;;;18.73;43.65;100304.45;;;;-49
2021/01/19 11:31:47;;;;;;;2.86;1.63;;;;;;;18.74;43.66;100304.69;;;;-49
2021/01/19 11:34:47;;;;;;;2.63;1.46;;;;;;;18.75;43.61;100299.44;;;;-49
2021/01/19 11:37:47;;;;;;;2.15;1.49;;;;;;;18.75;43.63;100290.91;;;;-49
2021/01/19 11:40:48;;;;;;;5.19;1.41;;;;;;;18.76;43.60;100283.76;;;;-55
2021/01/19 11:43:47;;;;;;;2.34;1.33;;;;;;;18.76;43.57;100273.55;;;;-55
2021/01/19 11:46:47;;;;;;;2.38;1.45;;;;;;;18.77;43.64;100263.39;;;;-54
2021/01/19 11:49:47;;;;;;;2.21;1.31;;;;;;;18.78;43.54;100260.69;;;;-55
2021/01/19 11:52:47;;;;;;;1.85;1.39;;;;;;;18.81;43.58;100258.43;;;;-55
2021/01/19 11:55:47;;;;;;;1.74;1.31;;;;;;;18.81;43.48;100248.77;;;;-55
2021/01/19 11:58:47;;;;;;;1.57;1.47;;;;;;;18.82;43.54;100247.54;;;;-55
2021/01/19 12:01:47;;;;;;;1.95;1.62;;;;;;;18.82;43.48;100242.45;;;;-52
2021/01/19 12:04:47;;;;;;;1.50;1.40;;;;;;;18.84;43.53;100237.81;;;;-55
2021/01/19 12:07:47;;;;;;;1.75;1.43;;;;;;;18.84;43.53;100222.48;;;;-52
2021/01/19 12:10:47;;;;;;;1.52;1.35;;;;;;;18.85;43.51;100217.20;;;;-52
2021/01/19 12:13:47;;;;;;;2.16;1.46;;;;;;;18.87;43.47;100214.38;;;;-52
2021/01/19 12:16:47;;;;;;;1.49;1.35;;;;;;;18.87;43.42;100211.22;;;;-52
2021/01/19 12:19:47;;;;;;;1.79;1.21;;;;;;;18.87;43.56;100198.45;;;;-52
2021/01/19 12:22:47;;;;;;;1.45;1.30;;;;;;;18.88;43.42;100197.64;;;;-52
2021/01/19 12:25:47;;;;;;;1.45;1.31;;;;;;;18.88;43.43;100189.92;;;;-52
2021/01/19 12:28:47;;;;;;;1.67;1.33;;;;;;;18.89;43.48;100188.64;;;;-49
2021/01/19 12:31:47;;;;;;;1.97;1.39;;;;;;;18.90;43.42;100182.70;;;;-55
2021/01/19 12:34:47;;;;;;;1.63;1.35;;;;;;;18.91;43.42;100173.55;;;;-51
2021/01/19 12:37:47;;;;;;;1.33;1.23;;;;;;;18.91;43.42;100166.01;;;;-55
2021/01/19 12:40:47;;;;;;;2.27;1.39;;;;;;;18.92;43.41;100174.27;;;;-55
2021/01/19 12:43:47;;;;;;;1.30;1.20;;;;;;;18.93;43.45;100178.92;;;;-51
2021/01/19 12:46:47;;;;;;;1.66;1.39;;;;;;;18.93;43.39;100169.09;;;;-51
2021/01/19 12:49:47;;;;;;;1.90;1.30;;;;;;;18.94;43.39;100160.23;;;;-51
2021/01/19 12:52:47;;;;;;;1.55;1.34;;;;;;;18.95;43.44;100158.39;;;;-52
2021/01/19 12:55:47;;;;;;;1.21;1.11;;;;;;;18.95;43.42;100160.82;;;;-52
2021/01/19 12:58:47;;;;;;;2.31;1.30;;;;;;;18.96;43.56;100154.80;;;;-50
2021/01/19 13:01:47;;;;;;;3.11;1.60;;;;;;;18.94;42.84;100162.59;;;;-48
2021/01/19 13:04:47;;;;;;;2.56;1.53;;;;;;;18.96;43.13;100168.77;;;;-53
2021/01/19 13:07:47;;;;;;;2.37;1.59;;;;;;;18.95;42.41;100162.36;;;;-49
2021/01/19 13:10:47;;;;;;;3.15;1.54;;;;;;;18.96;42.76;100152.20;;;;-51
2021/01/19 13:13:47;;;;;;;1.43;1.33;;;;;;;18.97;42.89;100149.37;;;;-49
2021/01/19 13:16:47;;;;;;;1.83;1.33;;;;;;;18.98;42.95;100154.97;;;;-49
2021/01/19 13:19:47;;;;;;;1.40;1.30;;;;;;;19.00;43.05;100148.58;;;;-56
2021/01/19 13:22:47;;;;;;;1.43;1.33;;;;;;;19.01;43.07;100145.64;;;;-53
2021/01/19 13:25:47;;;;;;;1.83;1.43;;;;;;;19.02;43.09;100147.45;;;;-54
2021/01/19 13:28:47;;;;;;;1.61;1.31;;;;;;;19.02;43.11;100152.80;;;;-54
2021/01/19 13:31:47;;;;;;;1.40;1.30;;;;;;;19.03;43.17;100153.30;;;;-49
2021/01/19 13:34:47;;;;;;;1.32;1.23;;;;;;;19.06;43.29;100152.66;;;;-51
2021/01/19 13:37:47;;;;;;;1.85;1.49;;;;;;;19.01;42.97;100149.88;;;;-52
2021/01/19 13:40:47;;;;;;;1.79;1.47;;;;;;;19.01;42.97;100155.22;;;;-50
2021/01/19 13:43:47;;;;;;;8.58;1.68;;;;;;;18.96;42.61;100166.41;;;;-49
2021/01/19 13:46:47;;;;;;;3.98;1.63;;;;;;;18.94;42.94;100164.87;;;;-58
2021/01/19 13:49:47;;;;;;;4.81;1.60;;;;;;;18.94;43.13;100161.38;;;;-50
2021/01/19 13:52:48;;;;;;;3.19;1.61;;;;;;;18.96;43.29;100158.87;;;;-51
2021/01/19 13:55:47;;;;;;;4.95;1.83;;;;;;;19.04;43.55;100161.09;;;;-51
2021/01/19 13:58:47;;;;;;;5.11;1.90;;;;;;;19.12;43.96;100173.14;;;;-53
2021/01/19 14:01:47;;;;;;;8.56;1.71;;;;;;;19.17;44.12;100178.34;;;;-51
2021/01/19 14:04:47;;;;;;;8.17;1.64;;;;;;;19.20;44.13;100174.22;;;;-52
2021/01/19 14:07:47;;;;;;;8.51;1.76;;;;;;;19.25;44.38;100182.34;;;;-44
2021/01/19 14:10:47;;;;;;;5.94;1.61;;;;;;;19.28;44.51;100186.44;;;;-51
2021/01/19 14:13:47;;;;;;;9.39;1.96;;;;;;;19.30;44.59;100193.34;;;;-52
2021/01/19 14:16:48;;;;;;;5.86;1.60;;;;;;;19.33;44.63;100188.88;;;;-44
2021/01/19 14:19:47;;;;;;;5.91;1.75;;;;;;;19.34;44.60;100192.38;;;;-59
2021/01/19 14:22:47;;;;;;;4.93;1.62;;;;;;;19.37;44.88;100189.94;;;;-56
2021/01/19 14:25:47;;;;;;;3.77;1.66;;;;;;;19.39;45.09;100191.98;;;;-54
2021/01/19 14:28:47;;;;;;;6.99;1.71;;;;;;;19.40;44.89;100176.05;;;;-44
2021/01/19 14:31:48;;;;;;;12.25;1.96;;;;;;;19.20;42.91;100187.22;;;;-59
2021/01/19 14:34:47;;;;;;;4.59;2.10;;;;;;;18.89;42.19;100186.86;;;;-52
2021/01/19 14:37:47;;;;;;;8.27;2.13;;;;;;;18.68;41.94;100206.54;;;;-53
2021/01/19 14:40:47;;;;;;;9.46;2.37;;;;;;;18.85;43.15;100201.05;;;;-50
2021/01/19 14:43:47;;;;;;;11.11;2.12;;;;;;;18.98;43.74;100197.20;;;;-49
2021/01/19 14:46:47;;;;;;;10.29;2.30;;;;;;;19.05;43.48;100184.88;;;;-54
2021/01/19 14:49:47;;;;;;;16.75;2.30;;;;;;;19.12;44.23;100184.67;;;;-50
2021/01/19 14:52:47;;;;;;;7.79;1.97;;;;;;;19.15;43.75;100185.81;;;;-50
2021/01/19 14:55:47;;;;;;;8.05;1.84;;;;;;;19.17;43.84;100189.73;;;;-50
2021/01/19 14:58:47;;;;;;;6.17;1.83;;;;;;;19.20;44.05;100190.39;;;;-50
2021/01/19 15:01:48;;;;;;;9.80;2.11;;;;;;;19.21;44.27;100195.09;;;;-50
2021/01/19 15:04:47;;;;;;;9.90;1.99;;;;;;;19.22;44.26;100193.56;;;;-51
2021/01/19 15:07:47;;;;;;;11.39;2.12;;;;;;;19.22;44.45;100186.73;;;;-54
2021/01/19 15:10:47;;;;;;;12.95;2.36;;;;;;;19.22;44.55;100185.03;;;;-60
2021/01/19 15:13:47;;;;;;;8.02;2.17;;;;;;;18.84;42.23;100186.61;;;;-60
2021/01/19 15:16:47;;;;;;;10.23;2.54;;;;;;;18.82;43.33;100202.48;;;;-51
2021/01/19 15:19:47;;;;;;;14.23;2.80;;;;;;;18.88;43.43;100201.23;;;;-51
2021/01/19 15:22:47;;;;;;;12.01;2.59;;;;;;;18.94;43.55;100197.58;;;;-51
2021/01/19 15:25:47;;;;;;;6.87;2.17;;;;;;;18.96;43.52;100201.98;;;;-53
2021/01/19 15:28:47;;;;;;;9.23;2.07;;;;;;;18.97;43.65;100216.70;;;;-50
2021/01/19 15:31:47;;;;;;;6.37;2.06;;;;;;;18.96;43.65;100212.05;;;;-52
2021/01/19 15:34:48;;;;;;;4.98;1.89;;;;;;;18.96;43.67;100211.24;;;;-48
2021/01/19 15:37:48;;;;;;;5.74;2.13;;;;;;;18.95;43.70;100215.07;;;;-59
2021/01/19 15:40:47;;;;;;;4.97;1.83;;;;;;;18.94;43.73;100208.88;;;;-51
2021/01/19 15:43:47;;;;;;;6.30;1.89;;;;;;;18.90;43.72;100210.88;;;;-47
2021/01/19 15:46:48;;;;;;;5.85;1.94;;;;;;;18.90;43.72;100212.27;;;;-49
2021/01/19 15:49:47;;;;;;;6.09;1.80;;;;;;;18.87;43.74;100213.88;;;;-58
2021/01/19 15:52:47;;;;;;;8.81;2.05;;;;;;;18.86;43.74;100214.05;;;;-50
2021/01/19 15:55:47;;;;;;;4.76;2.03;;;;;;;18.85;43.77;100207.38;;;;-58
2021/01/19 15:58:47;;;;;;;2.56;1.73;;;;;;;18.83;43.85;100212.41;;;;-47
2021/01/19 16:02:10;;;;;;;5.42;1.82;;;;;;;18.81;43.78;100205.89;;;;-49
2021/01/19 16:04:47;;;;;;;6.05;1.73;;;;;;;18.80;43.81;100210.05;;;;-46
2021/01/19 16:07:47;;;;;;;3.56;1.70;;;;;;;18.78;43.78;100205.02;;;;-52
2021/01/19 16:10:47;;;;;;;3.79;1.79;;;;;;;18.76;43.86;100207.23;;;;-51
2021/01/19 16:13:47;;;;;;;3.09;1.64;;;;;;;18.75;43.86;100218.25;;;;-52
2021/01/19 16:16:47;;;;;;;5.52;1.70;;;;;;;18.74;43.87;100220.78;;;;-54
2021/01/19 16:19:49;;;;;;;6.55;1.66;;;;;;;18.73;43.83;100224.57;;;;-61
2021/01/19 16:22:47;;;;;;;4.07;1.77;;;;;;;18.72;43.90;100229.83;;;;-55
2021/01/19 16:25:47;;;;;;;3.73;1.60;;;;;;;18.70;43.92;100238.05;;;;-56
2021/01/19 16:28:47;;;;;;;3.41;1.65;;;;;;;18.68;43.89;100238.68;;;;-56
2021/01/19 16:31:47;;;;;;;3.35;1.67;;;;;;;18.66;43.92;100232.41;;;;-51
2021/01/19 16:34:47;;;;;;;2.83;1.66;;;;;;;18.64;43.95;100233.78;;;;-58
2021/01/19 16:37:47;;;;;;;6.67;1.77;;;;;;;18.63;44.12;100241.07;;;;-58
2021/01/19 16:40:47;;;;;;;8.23;1.73;;;;;;;18.62;43.67;100224.92;;;;-52